Time;durP1;ratioP1;P1;durP2;ratioP2;P2;SDS_P1;SDS_P2;PMS_P1;PMS_P2;Temp;Humidity;BMP_temperature;BMP_pressure;BME280_temperature;BME280_humidity;BME280_pressure;Samples;Min_cycle;Max_cycle;Signal;HPM_P1;HPM_P2
2021/09/16 00:05:26;;;;;;;0.77;0.22;;;15.20;99.90;;;;;;20588584;28;20605;-79
2021/09/16 00:15:27;;;;;;;7.95;0.40;;;15.20;99.90;;;;;;20652746;28;20056;-80
2021/09/16 00:25:28;;;;;;;3.25;0.50;;;15.10;99.90;;;;;;20609928;28;20124;-80
2021/09/16 00:35:29;;;;;;;0.65;0.43;;;14.90;99.90;;;;;;20620442;28;20042;-80
2021/09/16 00:45:30;;;;;;;2.35;0.28;;;14.90;99.90;;;;;;20625572;28;20265;-80
2021/09/16 00:55:33;;;;;;;1.23;0.32;;;14.90;99.90;;;;;;20640159;28;20059;-79
2021/09/16 01:05:35;;;;;;;0.80;0.30;;;14.90;99.90;;;;;;20640523;28;20047;-79
2021/09/16 01:15:37;;;;;;;0.30;0.10;;;14.90;99.90;;;;;;20619245;28;20046;-79
2021/09/16 01:25:38;;;;;;;0.75;0.10;;;14.90;99.90;;;;;;20615480;28;20044;-80
2021/09/16 01:35:39;;;;;;;1.13;0.52;;;15.00;99.90;;;;;;20625250;28;20051;-80
2021/09/16 01:45:40;;;;;;;2.15;0.10;;;15.10;99.90;;;;;;20679679;28;20050;-80
2021/09/16 01:55:42;;;;;;;0.82;0.20;;;15.10;99.90;;;;;;20635522;28;20062;-80
2021/09/16 02:05:43;;;;;;;3.78;1.38;;;15.10;99.90;;;;;;20662474;28;20053;-80
2021/09/16 02:15:44;;;;;;;0.50;0.10;;;15.20;99.90;;;;;;20676171;28;20046;-80
2021/09/16 02:25:45;;;;;;;1.15;0.30;;;15.10;99.90;;;;;;20657711;28;20485;-79
2021/09/16 02:35:51;;;;;;;2.13;0.38;;;15.10;99.90;;;;;;20643563;28;20047;-79
2021/09/16 02:45:52;;;;;;;0.68;0.10;;;15.10;99.90;;;;;;20672109;28;20036;-80
2021/09/16 02:55:55;;;;;;;0.28;0.05;;;15.30;99.90;;;;;;20659936;28;20490;-80
2021/09/16 03:05:56;;;;;;;0.17;0.10;;;15.50;99.90;;;;;;20687557;28;20063;-80
2021/09/16 03:15:57;;;;;;;1.50;0.22;;;15.70;99.90;;;;;;20703959;28;20057;-80
2021/09/16 03:25:58;;;;;;;0.30;0.10;;;15.70;99.90;;;;;;20635649;28;20508;-80
2021/09/16 03:35:59;;;;;;;2.20;0.30;;;15.70;99.90;;;;;;20658938;28;20058;-80
2021/09/16 03:46:00;;;;;;;1.05;0.17;;;15.70;99.90;;;;;;20640541;28;20043;-79
2021/09/16 03:56:02;;;;;;;2.75;0.05;;;15.70;99.90;;;;;;20690670;28;20435;-80
2021/09/16 04:06:03;;;;;;;1.25;0.55;;;15.80;99.90;;;;;;20630179;28;20041;-80
2021/09/16 04:16:04;;;;;;;2.35;0.35;;;15.80;99.90;;;;;;20698768;28;20057;-80
2021/09/16 04:26:05;;;;;;;0.82;0.25;;;15.80;99.90;;;;;;20735186;28;20046;-80
2021/09/16 04:36:06;;;;;;;2.33;0.20;;;15.70;99.90;;;;;;20672776;28;20058;-80
2021/09/16 04:46:07;;;;;;;3.17;0.52;;;15.70;99.90;;;;;;20704671;28;20043;-80
2021/09/16 04:56:08;;;;;;;1.17;0.28;;;15.80;99.90;;;;;;20716840;28;20050;-80
2021/09/16 05:06:10;;;;;;;2.05;0.20;;;15.70;99.90;;;;;;20684917;28;20475;-79
2021/09/16 05:16:11;;;;;;;1.30;0.22;;;15.50;99.90;;;;;;20710278;28;20071;-79
2021/09/16 05:26:12;;;;;;;0.77;0.10;;;15.50;99.90;;;;;;20661317;28;20773;-79
2021/09/16 05:36:13;;;;;;;2.28;0.20;;;15.40;99.90;;;;;;20677937;28;20055;-80
2021/09/16 05:46:15;;;;;;;2.55;0.25;;;15.30;99.90;;;;;;20716012;28;20055;-80
2021/09/16 05:56:16;;;;;;;1.35;0.20;;;15.30;99.90;;;;;;20680580;28;20070;-80
2021/09/16 06:06:18;;;;;;;3.15;0.50;;;15.20;99.90;;;;;;20704994;28;20033;-80
2021/09/16 06:16:19;;;;;;;0.65;0.13;;;15.10;99.90;;;;;;20684491;28;20071;-80
2021/09/16 06:26:23;;;;;;;2.47;0.45;;;15.00;99.90;;;;;;20704307;28;20503;-80
2021/09/16 06:36:24;;;;;;;1.20;0.63;;;15.10;99.90;;;;;;20709296;28;20057;-80
2021/09/16 06:46:26;;;;;;;1.00;0.38;;;15.20;99.90;;;;;;20698049;28;20045;-80
2021/09/16 06:56:28;;;;;;;3.45;0.30;;;15.40;99.90;;;;;;20689486;28;20064;-80
2021/09/16 07:06:29;;;;;;;0.73;0.22;;;15.60;99.90;;;;;;20702388;28;20049;-79
2021/09/16 07:16:32;;;;;;;3.13;0.30;;;15.90;99.90;;;;;;20668862;28;20054;-79
2021/09/16 07:26:33;;;;;;;2.42;0.63;;;15.90;99.90;;;;;;20724555;28;20050;-79
2021/09/16 07:36:34;;;;;;;7.25;0.75;;;16.00;99.90;;;;;;20702774;28;20061;-79
2021/09/16 07:46:36;;;;;;;1.50;0.25;;;16.20;99.90;;;;;;20649824;28;20076;-80
2021/09/16 07:56:40;;;;;;;5.68;0.88;;;16.40;99.90;;;;;;20713166;28;20057;-80
2021/09/16 08:06:41;;;;;;;3.22;0.60;;;16.60;99.90;;;;;;20699598;28;20042;-80
2021/09/16 08:16:42;;;;;;;0.73;0.55;;;16.70;99.90;;;;;;20690623;28;20049;-80
2021/09/16 08:26:44;;;;;;;1.15;0.30;;;16.90;99.90;;;;;;20695231;28;20454;-80
2021/09/16 08:36:45;;;;;;;1.23;0.28;;;17.20;99.90;;;;;;20681565;28;20045;-77
2021/09/16 08:46:47;;;;;;;0.63;0.20;;;17.50;99.90;;;;;;20666302;28;20049;-78
2021/09/16 08:56:48;;;;;;;0.73;0.20;;;17.50;99.90;;;;;;20666590;28;20062;-77
2021/09/16 09:07:03;;;;;;;0.85;0.20;;;17.80;99.90;;;;;;20647061;28;20095;-77
2021/09/16 09:17:18;;;;;;;0.22;0.10;;;18.10;99.90;;;;;;20642804;28;20243;-77
2021/09/16 09:27:25;;;;;;;0.73;0.20;;;18.30;99.90;;;;;;20690939;28;20056;-77
2021/09/16 09:37:35;;;;;;;1.87;0.47;;;18.50;99.90;;;;;;20678232;28;20838;-77
2021/09/16 09:47:37;;;;;;;0.60;0.20;;;18.50;99.90;;;;;;20651113;28;20067;-77
2021/09/16 09:57:38;;;;;;;0.75;0.15;;;18.50;99.90;;;;;;20651656;28;20611;-76
2021/09/16 10:07:40;;;;;;;0.57;0.20;;;18.50;99.90;;;;;;20624941;28;20054;-76
2021/09/16 10:17:43;;;;;;;0.25;0.10;;;18.80;99.90;;;;;;20654807;28;20053;-77
2021/09/16 10:27:56;;;;;;;0.60;0.20;;;19.10;99.90;;;;;;20606522;28;20047;-75
2021/09/16 10:38:29;;;;;;;0.80;0.22;;;19.10;99.90;;;;;;20661821;28;20940;-76
2021/09/16 10:48:32;;;;;;;2.03;0.20;;;19.20;99.90;;;;;;20591997;28;20031;-77
2021/09/16 10:58:34;;;;;;;0.77;0.30;;;19.50;99.90;;;;;;20604587;28;20058;-76
2021/09/16 11:09:00;;;;;;;2.15;0.25;;;19.70;99.90;;;;;;20547066;28;20411;-76
2021/09/16 11:19:02;;;;;;;1.23;0.65;;;20.30;99.90;;;;;;20612513;28;20088;-75
2021/09/16 11:29:09;;;;;;;1.15;0.22;;;20.70;99.90;;;;;;20609823;28;20041;-76
2021/09/16 11:39:17;;;;;;;1.10;0.50;;;20.90;99.90;;;;;;20632593;28;20046;-76
2021/09/16 11:49:18;;;;;;;1.23;0.40;;;21.10;99.90;;;;;;20680113;28;20042;-78
2021/09/16 11:59:19;;;;;;;1.80;0.57;;;21.30;99.90;;;;;;20712238;28;20563;-79
2021/09/16 12:09:21;;;;;;;0.82;0.30;;;21.60;99.90;;;;;;20693489;28;20075;-79
2021/09/16 12:19:22;;;;;;;0.68;0.32;;;21.50;99.90;;;;;;20665306;28;20038;-79
2021/09/16 12:29:34;;;;;;;0.95;0.50;;;21.90;99.90;;;;;;20725640;28;20398;-78
2021/09/16 12:39:42;;;;;;;2.22;0.75;;;21.40;99.90;;;;;;20697490;28;20056;-78
2021/09/16 12:49:44;;;;;;;1.27;0.30;;;21.80;99.90;;;;;;20681337;28;20058;-78
2021/09/16 12:59:53;;;;;;;1.60;0.43;;;22.00;99.90;;;;;;20644321;28;20041;-78
2021/09/16 13:10:23;;;;;;;1.92;0.80;;;21.90;99.90;;;;;;20646210;28;20041;-79
2021/09/16 13:20:24;;;;;;;2.65;1.00;;;21.80;99.90;;;;;;20647291;28;20050;-79
2021/09/16 13:30:26;;;;;;;2.67;0.75;;;21.20;99.90;;;;;;20665014;28;20052;-80
2021/09/16 13:40:27;;;;;;;4.78;1.35;;;21.50;99.90;;;;;;20607176;28;20047;-79
2021/09/16 13:50:28;;;;;;;3.47;1.33;;;21.00;99.90;;;;;;20644656;28;20060;-79
2021/09/16 14:00:30;;;;;;;3.17;1.40;;;21.00;99.90;;;;;;20607768;28;20068;-79
2021/09/16 14:10:31;;;;;;;3.92;1.70;;;21.90;99.90;;;;;;20644586;28;20041;-79
2021/09/16 14:20:32;;;;;;;7.93;2.17;;;21.20;99.90;;;;;;20596408;28;20049;-80
2021/09/16 14:30:37;;;;;;;6.15;2.33;;;21.60;99.90;;;;;;20607013;28;20118;-80
2021/09/16 14:40:39;;;;;;;4.65;2.13;;;22.20;99.90;;;;;;20635604;28;20053;-79
2021/09/16 14:50:40;;;;;;;7.93;3.28;;;22.30;99.90;;;;;;20714924;28;20038;-79
2021/09/16 15:00:42;;;;;;;5.65;2.42;;;21.60;99.90;;;;;;20704510;28;20053;-80
2021/09/16 15:10:47;;;;;;;5.70;2.83;;;21.20;99.90;;;;;;20722802;28;20054;-79
2021/09/16 15:20:50;;;;;;;5.13;2.70;;;20.80;99.90;;;;;;20648665;28;20048;-80
2021/09/16 15:30:59;;;;;;;4.68;2.30;;;20.90;99.90;;;;;;20730527;28;20754;-79
2021/09/16 15:41:00;;;;;;;5.72;2.50;;;20.90;99.90;;;;;;20712144;28;20613;-79
2021/09/16 15:51:02;;;;;;;5.40;2.60;;;20.80;99.90;;;;;;20724639;28;20049;-79
2021/09/16 16:01:03;;;;;;;5.30;2.40;;;20.60;99.90;;;;;;20721927;28;20046;-79
2021/09/16 16:11:05;;;;;;;8.55;3.67;;;20.40;99.90;;;;;;20752855;28;20042;-79
2021/09/16 16:21:06;;;;;;;6.13;3.03;;;20.20;99.90;;;;;;20736367;28;20056;-82
2021/09/16 16:31:07;;;;;;;4.47;1.95;;;20.00;99.90;;;;;;20681497;28;20052;-77
2021/09/16 16:41:09;;;;;;;9.93;3.40;;;19.70;99.90;;;;;;20633059;28;20547;-77
2021/09/16 16:51:10;;;;;;;8.02;3.83;;;19.50;99.90;;;;;;20648158;28;20064;-79
2021/09/16 17:01:12;;;;;;;7.35;3.30;;;19.30;99.90;;;;;;20681396;28;20115;-78
2021/09/16 17:11:14;;;;;;;8.00;3.67;;;19.10;99.90;;;;;;20711657;28;20130;-77
2021/09/16 17:21:15;;;;;;;10.43;4.22;;;18.90;99.90;;;;;;20669880;28;20409;-82
2021/09/16 17:31:17;;;;;;;7.60;2.97;;;18.80;99.90;;;;;;20649341;28;20482;-79
2021/09/16 17:41:19;;;;;;;9.15;4.60;;;18.60;99.90;;;;;;20624086;28;20050;-79
2021/09/16 17:51:20;;;;;;;10.15;4.75;;;18.50;99.90;;;;;;20626810;28;20046;-78
2021/09/16 18:01:22;;;;;;;8.48;3.97;;;18.20;99.90;;;;;;20652115;28;20042;-78
2021/09/16 18:11:23;;;;;;;10.95;4.57;;;18.00;99.90;;;;;;20654895;28;20057;-78
2021/09/16 18:21:27;;;;;;;10.75;4.78;;;17.80;99.90;;;;;;20642955;28;20057;-78
2021/09/16 18:31:28;;;;;;;9.20;4.68;;;17.60;99.90;;;;;;20640434;28;20062;-78
2021/09/16 18:41:30;;;;;;;10.80;5.40;;;17.40;99.90;;;;;;20655420;28;20724;-78
2021/09/16 18:51:31;;;;;;;13.00;5.35;;;17.10;99.90;;;;;;20672003;28;20061;-78
2021/09/16 19:01:33;;;;;;;17.42;7.05;;;16.90;99.90;;;;;;20672866;28;20080;-78
2021/09/16 19:11:34;;;;;;;13.68;6.65;;;16.70;99.90;;;;;;20678359;28;20395;-78
2021/09/16 19:21:36;;;;;;;12.25;6.00;;;16.50;99.90;;;;;;20656779;28;20048;-80
2021/09/16 19:31:37;;;;;;;14.98;5.88;;;16.40;99.90;;;;;;20607249;28;20089;-78
2021/09/16 19:41:41;;;;;;;16.48;6.22;;;16.30;99.90;;;;;;20632762;28;20446;-78
2021/09/16 19:51:42;;;;;;;12.60;5.88;;;16.20;99.90;;;;;;20624229;28;20046;-79
2021/09/16 20:01:43;;;;;;;12.90;6.90;;;16.10;99.90;;;;;;20663942;28;20054;-78
2021/09/16 20:11:45;;;;;;;15.68;6.10;;;15.90;99.90;;;;;;20636470;28;20042;-78
2021/09/16 20:21:46;;;;;;;16.92;6.28;;;15.90;99.90;;;;;;20675053;28;20061;-78
2021/09/16 20:31:47;;;;;;;15.25;6.57;;;15.70;99.90;;;;;;20686231;28;20066;-79
2021/09/16 20:41:49;;;;;;;17.20;6.00;;;15.70;99.90;;;;;;20667565;28;20056;-78
2021/09/16 20:51:50;;;;;;;17.23;7.40;;;15.60;99.90;;;;;;20654281;28;20058;-79
2021/09/16 21:01:51;;;;;;;16.90;7.55;;;15.50;99.90;;;;;;20633127;28;20050;-79
2021/09/16 21:11:52;;;;;;;18.05;7.65;;;15.40;99.90;;;;;;20693456;28;20474;-79
2021/09/16 21:21:56;;;;;;;16.10;7.78;;;15.40;99.90;;;;;;20651753;28;20080;-79
2021/09/16 21:31:57;;;;;;;15.95;7.95;;;15.40;99.90;;;;;;20713796;28;20063;-79
2021/09/16 21:41:58;;;;;;;19.00;7.75;;;15.40;99.90;;;;;;20630292;28;20056;-79
2021/09/16 21:51:59;;;;;;;22.10;8.40;;;15.30;99.90;;;;;;20690850;28;20053;-79
2021/09/16 22:02:02;;;;;;;19.52;8.27;;;15.30;99.90;;;;;;20661412;28;20038;-79
2021/09/16 22:12:05;;;;;;;21.80;8.80;;;15.30;99.90;;;;;;20665405;28;20049;-78
2021/09/16 22:22:06;;;;;;;20.00;8.27;;;15.30;99.90;;;;;;20661575;28;20065;-79
2021/09/16 22:32:08;;;;;;;23.65;9.32;;;15.40;99.90;;;;;;20635724;28;20054;-78
2021/09/16 22:42:09;;;;;;;21.50;8.43;;;15.40;99.90;;;;;;20674115;28;20046;-78
2021/09/16 22:52:11;;;;;;;21.42;7.55;;;15.50;99.90;;;;;;20644469;28;20047;-79
2021/09/16 23:02:13;;;;;;;22.08;8.27;;;15.60;99.90;;;;;;20654239;28;20139;-79
2021/09/16 23:12:14;;;;;;;22.50;9.48;;;15.60;99.90;;;;;;20680606;28;20126;-79
2021/09/16 23:22:16;;;;;;;20.92;7.53;;;15.60;99.90;;;;;;20645174;28;20053;-79
2021/09/16 23:32:18;;;;;;;20.95;8.50;;;15.70;99.90;;;;;;20647866;28;20114;-79
2021/09/16 23:42:20;;;;;;;22.33;8.50;;;15.70;99.90;;;;;;20599169;28;20050;-78
2021/09/16 23:52:21;;;;;;;20.65;8.80;;;15.70;99.90;;;;;;20649652;28;20138;-78
